createdAt,value
2018-04-02T00:00:18.016Z,99.90
2018-04-02T00:02:45.786Z,99.90
2018-04-02T00:05:14.088Z,99.90
2018-04-02T00:07:42.343Z,99.90
2018-04-02T00:10:10.729Z,99.90
2018-04-02T00:12:38.982Z,99.90
2018-04-02T00:15:06.497Z,99.90
2018-04-02T00:17:34.943Z,99.90
2018-04-02T00:20:03.319Z,99.90
2018-04-02T00:22:31.574Z,99.90
2018-04-02T00:24:59.055Z,99.90
2018-04-02T00:27:27.288Z,99.90
2018-04-02T00:29:54.771Z,99.90
2018-04-02T00:32:22.225Z,99.90
2018-04-02T00:34:50.477Z,99.90
2018-04-02T00:37:17.978Z,99.90
2018-04-02T00:39:46.214Z,99.90
2018-04-02T00:42:13.874Z,99.90
2018-04-02T00:44:41.350Z,99.90
2018-04-02T00:47:08.837Z,99.90
2018-04-02T00:49:36.337Z,99.90
2018-04-02T00:52:03.810Z,99.90
2018-04-02T00:54:31.288Z,99.90
2018-04-02T00:56:59.540Z,99.90
2018-04-02T00:59:27.166Z,99.90
2018-04-02T01:01:54.729Z,99.90
2018-04-02T01:04:22.254Z,99.90
2018-04-02T01:06:50.597Z,99.90
2018-04-02T01:09:18.169Z,99.90
2018-04-02T01:11:45.661Z,99.90
2018-04-02T01:14:13.131Z,99.90
2018-04-02T01:16:40.621Z,99.90
2018-04-02T01:19:08.086Z,99.90
2018-04-02T01:21:35.565Z,99.90
2018-04-02T01:24:03.805Z,99.90
2018-04-02T01:26:31.410Z,99.90
2018-04-02T01:28:58.910Z,99.90
2018-04-02T01:31:26.469Z,99.90
2018-04-02T01:33:54.018Z,99.90
2018-04-02T01:36:21.694Z,99.90
2018-04-02T01:38:49.168Z,99.90
2018-04-02T01:41:16.656Z,99.90
2018-04-02T01:43:44.986Z,99.90
2018-04-02T01:46:12.548Z,99.90
2018-04-02T01:48:40.027Z,99.90
2018-04-02T01:51:07.518Z,99.90
2018-04-02T01:53:34.991Z,99.90
2018-04-02T01:56:02.464Z,99.90
2018-04-02T01:58:29.941Z,99.90
2018-04-02T02:00:57.414Z,99.90
2018-04-02T02:03:24.891Z,99.90
2018-04-02T02:05:53.112Z,99.90
2018-04-02T02:08:20.601Z,99.90
2018-04-02T02:10:48.069Z,99.90
2018-04-02T02:13:15.609Z,99.90
2018-04-02T02:15:43.105Z,99.90
2018-04-02T02:18:11.364Z,99.90
2018-04-02T02:20:39.593Z,99.90
2018-04-02T02:23:07.136Z,99.90
2018-04-02T02:25:34.607Z,99.90
2018-04-02T02:28:02.083Z,99.90
2018-04-02T02:30:29.623Z,99.90
2018-04-02T02:32:57.078Z,99.90
2018-04-02T02:35:24.570Z,99.90
2018-04-02T02:37:52.038Z,99.90
2018-04-02T02:40:20.118Z,99.90
2018-04-02T02:42:48.358Z,99.90
2018-04-02T02:45:15.835Z,99.90
2018-04-02T02:47:43.797Z,99.90
2018-04-02T02:50:11.313Z,99.90
2018-04-02T02:52:38.806Z,99.90
2018-04-02T02:55:06.286Z,99.90
2018-04-02T02:57:34.526Z,99.90
2018-04-02T03:00:02.013Z,99.90
2018-04-02T03:02:29.480Z,99.90
2018-04-02T03:04:57.724Z,99.90
2018-04-02T03:07:25.211Z,99.90
2018-04-02T03:09:52.685Z,99.90
2018-04-02T03:12:20.927Z,99.90
2018-04-02T03:14:48.423Z,99.90
2018-04-02T03:17:15.905Z,99.90
2018-04-02T03:19:43.398Z,99.90
2018-04-02T03:22:10.916Z,99.90
2018-04-02T03:24:38.465Z,99.90
2018-04-02T03:27:05.942Z,99.90
2018-04-02T03:29:33.421Z,99.90
2018-04-02T03:32:00.907Z,99.90
2018-04-02T03:34:28.532Z,99.90
2018-04-02T03:36:56.077Z,99.90
2018-04-02T03:39:23.550Z,99.90
2018-04-02T03:41:51.024Z,99.90
2018-04-02T03:44:20.010Z,99.90
2018-04-02T03:46:48.356Z,99.90
2018-04-02T03:49:15.820Z,99.90
2018-04-02T03:51:43.305Z,99.90
2018-04-02T03:54:12.284Z,99.90
2018-04-02T03:56:39.782Z,99.90
2018-04-02T03:59:08.024Z,99.90
2018-04-02T04:01:35.502Z,99.90
2018-04-02T04:04:03.750Z,99.90
2018-04-02T04:06:31.225Z,99.90
2018-04-02T04:08:58.720Z,99.90
2018-04-02T04:11:26.186Z,99.90
2018-04-02T04:13:53.671Z,99.90
2018-04-02T04:16:21.133Z,99.90
2018-04-02T04:18:48.617Z,99.90
2018-04-02T04:21:16.661Z,99.90
2018-04-02T04:23:44.147Z,99.90
2018-04-02T04:26:11.611Z,99.90
2018-04-02T04:28:39.854Z,99.90
2018-04-02T04:31:07.485Z,99.90
2018-04-02T04:33:35.974Z,99.90
2018-04-02T04:36:03.437Z,99.90
2018-04-02T04:38:30.934Z,99.90
2018-04-02T04:40:59.913Z,99.90
2018-04-02T04:43:27.388Z,99.90
2018-04-02T04:45:55.630Z,99.90
2018-04-02T04:48:23.138Z,99.90
2018-04-02T04:50:51.382Z,99.90
2018-04-02T04:53:18.858Z,99.90
2018-04-02T04:55:46.321Z,99.90
2018-04-02T04:58:14.566Z,99.90
2018-04-02T05:00:42.056Z,99.90
2018-04-02T05:03:10.293Z,99.90
2018-04-02T05:05:37.761Z,99.90
2018-04-02T05:08:05.249Z,99.90
2018-04-02T05:10:33.485Z,99.90
2018-04-02T05:13:00.962Z,99.90
2018-04-02T05:15:28.436Z,99.90
2018-04-02T05:17:56.677Z,99.90
2018-04-02T05:20:24.161Z,99.90
2018-04-02T05:22:52.410Z,99.90
2018-04-02T05:25:20.059Z,99.90
2018-04-02T05:27:47.518Z,99.90
2018-04-02T05:30:15.119Z,99.90
2018-04-02T05:32:43.353Z,99.90
2018-04-02T05:35:10.833Z,99.90
2018-04-02T05:37:38.307Z,99.90
2018-04-02T05:40:06.555Z,99.90
2018-04-02T05:42:34.041Z,99.90
2018-04-02T05:45:02.296Z,99.90
2018-04-02T05:47:29.754Z,99.90
2018-04-02T05:49:57.242Z,99.90
2018-04-02T05:52:24.698Z,99.90
2018-04-02T05:54:52.234Z,99.90
2018-04-02T05:57:19.666Z,99.90
2018-04-02T05:59:47.147Z,99.90
2018-04-02T06:02:14.613Z,99.90
2018-04-02T06:04:42.868Z,99.90
2018-04-02T06:07:10.341Z,99.90
2018-04-02T06:09:38.690Z,99.90
2018-04-02T06:12:06.161Z,99.90
2018-04-02T06:14:33.631Z,99.90
2018-04-02T06:17:01.989Z,99.90
2018-04-02T06:19:29.452Z,99.90
2018-04-02T06:21:56.934Z,99.90
2018-04-02T06:24:25.157Z,99.90
2018-04-02T06:26:52.635Z,99.90
2018-04-02T06:29:20.117Z,99.90
2018-04-02T06:31:48.430Z,99.90
2018-04-02T06:34:15.893Z,99.90
2018-04-02T06:36:43.373Z,99.90
2018-04-02T06:39:10.840Z,99.90
2018-04-02T06:41:38.326Z,99.90
2018-04-02T06:44:06.564Z,99.90
2018-04-02T06:46:34.037Z,99.90
2018-04-02T06:49:01.513Z,99.90
2018-04-02T06:51:29.756Z,99.90
2018-04-02T06:53:57.236Z,99.90
2018-04-02T06:56:25.482Z,99.90
2018-04-02T06:58:52.958Z,99.90
2018-04-02T07:01:20.518Z,99.90
2018-04-02T07:03:48.924Z,99.90
2018-04-02T07:06:17.150Z,99.90
2018-04-02T07:08:44.633Z,99.90
2018-04-02T07:11:12.110Z,99.90
2018-04-02T07:13:39.601Z,99.90
2018-04-02T07:16:07.082Z,99.90
2018-04-02T07:18:34.624Z,99.90
2018-04-02T07:21:02.124Z,99.90
2018-04-02T07:23:29.677Z,99.90
2018-04-02T07:25:57.238Z,99.90
2018-04-02T07:28:24.749Z,99.90
2018-04-02T07:30:52.354Z,99.90
2018-04-02T07:33:20.016Z,99.90
2018-04-02T07:35:47.500Z,99.90
2018-04-02T07:38:15.879Z,99.90
2018-04-02T07:40:43.364Z,99.90
2018-04-02T07:43:10.855Z,99.90
2018-04-02T07:45:38.324Z,99.90
2018-04-02T07:48:05.806Z,99.90
2018-04-02T07:50:34.054Z,99.90
2018-04-02T07:53:01.643Z,99.90
2018-04-02T07:55:29.871Z,99.90
2018-04-02T07:57:57.412Z,99.90
2018-04-02T08:00:24.964Z,99.90
2018-04-02T08:02:52.987Z,99.90
2018-04-02T08:05:20.562Z,99.90
2018-04-02T08:07:48.854Z,99.90
2018-04-02T08:10:16.364Z,99.90
2018-04-02T08:12:43.829Z,99.90
2018-04-02T08:15:11.401Z,99.90
2018-04-02T08:17:39.621Z,99.90
2018-04-02T08:20:07.109Z,99.90
2018-04-02T08:22:34.587Z,99.90
2018-04-02T08:25:02.867Z,99.90
2018-04-02T08:27:31.100Z,99.90
2018-04-02T08:29:58.589Z,99.90
2018-04-02T08:32:26.124Z,99.90
2018-04-02T08:34:53.576Z,99.90
2018-04-02T08:37:21.050Z,99.90
2018-04-02T08:39:48.529Z,99.90
2018-04-02T08:42:16.873Z,99.90
2018-04-02T08:44:44.337Z,99.90
2018-04-02T08:47:13.369Z,99.90
2018-04-02T08:49:40.981Z,99.90
2018-04-02T08:52:08.518Z,99.90
2018-04-02T08:54:35.989Z,99.90
2018-04-02T08:57:04.284Z,99.90
2018-04-02T08:59:31.753Z,99.90
2018-04-02T09:01:59.233Z,99.90
2018-04-02T09:04:27.525Z,99.90
2018-04-02T09:06:55.168Z,99.90
2018-04-02T09:09:23.408Z,99.90
2018-04-02T09:11:52.478Z,99.90
2018-04-02T09:14:20.008Z,99.90
2018-04-02T09:16:47.591Z,99.90
2018-04-02T09:19:15.192Z,99.90
2018-04-02T09:21:42.814Z,99.90
2018-04-02T09:24:10.300Z,99.90
2018-04-02T09:26:37.988Z,99.90
2018-04-02T09:29:06.436Z,99.90
2018-04-02T09:31:34.167Z,99.90
2018-04-02T09:34:02.462Z,99.90
2018-04-02T09:36:30.220Z,99.90
2018-04-02T09:38:57.861Z,99.90
2018-04-02T09:41:25.347Z,99.90
2018-04-02T09:43:53.062Z,99.90
2018-04-02T09:46:21.755Z,99.90
2018-04-02T09:48:49.240Z,99.90
2018-04-02T09:51:16.739Z,99.90
2018-04-02T09:53:44.658Z,99.90
2018-04-02T09:56:12.338Z,99.90
2018-04-02T09:58:39.917Z,99.90
2018-04-02T10:01:07.567Z,99.90
2018-04-02T10:03:38.921Z,99.90
2018-04-02T10:06:07.313Z,99.90
2018-04-02T10:08:35.849Z,99.90
2018-04-02T10:11:03.534Z,99.90
2018-04-02T10:13:31.079Z,99.90
2018-04-02T10:15:58.650Z,99.90
2018-04-02T10:18:26.274Z,99.90
2018-04-02T10:20:53.915Z,99.90
2018-04-02T10:23:22.209Z,99.90
2018-04-02T10:25:50.528Z,99.90
2018-04-02T10:28:18.010Z,99.90
2018-04-02T10:30:45.510Z,99.90
2018-04-02T10:33:13.181Z,99.90
2018-04-02T10:35:40.957Z,99.90
2018-04-02T10:38:08.450Z,99.90
2018-04-02T10:40:36.317Z,99.90
2018-04-02T10:43:04.728Z,99.90
2018-04-02T10:45:32.522Z,99.90
2018-04-02T10:48:00.058Z,99.90
2018-04-02T10:50:27.581Z,99.90
2018-04-02T10:52:55.224Z,99.90
2018-04-02T10:55:22.764Z,99.90
2018-04-02T10:57:51.374Z,99.90
2018-04-02T11:00:19.659Z,99.90
2018-04-02T11:02:47.915Z,99.90
2018-04-02T11:05:15.446Z,99.90
2018-04-02T11:07:43.004Z,99.90
2018-04-02T11:10:10.606Z,99.90
2018-04-02T11:12:39.151Z,99.90
2018-04-02T11:15:06.675Z,99.90
2018-04-02T11:17:34.952Z,99.90
2018-04-02T11:20:02.636Z,99.90
2018-04-02T11:22:30.515Z,99.90
2018-04-02T11:24:58.039Z,99.90
2018-04-02T11:27:26.381Z,98.80
2018-04-02T11:29:53.956Z,98.80
2018-04-02T11:32:22.211Z,98.90
2018-04-02T11:34:49.811Z,98.90
2018-04-02T11:37:18.096Z,98.50
2018-04-02T11:39:45.683Z,98.40
2018-04-02T11:42:13.615Z,98.40
2018-04-02T11:44:41.185Z,98.00
2018-04-02T11:47:08.680Z,98.30
2018-04-02T11:49:36.181Z,97.80
2018-04-02T11:52:04.442Z,97.00
2018-04-02T11:54:31.906Z,97.00
2018-04-02T11:57:00.333Z,96.70
2018-04-02T11:59:27.906Z,96.70
2018-04-02T12:01:55.612Z,96.20
2018-04-02T12:04:23.964Z,94.90
2018-04-02T12:06:51.569Z,94.90
2018-04-02T12:09:19.061Z,95.20
2018-04-02T12:11:46.657Z,95.60
2018-04-02T12:14:14.673Z,96.10
2018-04-02T12:16:42.273Z,96.70
2018-04-02T12:19:09.797Z,96.10
2018-04-02T12:21:37.367Z,96.30
2018-04-02T12:24:05.079Z,96.00
2018-04-02T12:26:33.351Z,96.00
2018-04-02T12:29:01.818Z,96.00
2018-04-02T12:31:29.297Z,96.00
2018-04-02T12:33:57.560Z,96.60
2018-04-02T12:36:25.803Z,96.60
2018-04-02T12:38:53.585Z,96.60
2018-04-02T12:41:21.062Z,96.60
2018-04-02T12:43:49.320Z,96.80
2018-04-02T12:46:16.806Z,96.80
2018-04-02T12:48:45.054Z,96.60
2018-04-02T12:51:12.510Z,96.60
2018-04-02T12:53:40.188Z,96.00
2018-04-02T12:56:07.658Z,96.30
2018-04-02T12:58:36.040Z,97.10
2018-04-02T13:01:04.289Z,95.90
2018-04-02T13:03:31.768Z,95.90
2018-04-02T13:06:00.029Z,96.70
2018-04-02T13:08:28.260Z,96.50
2018-04-02T13:10:55.909Z,96.30
2018-04-02T13:13:23.457Z,96.50
2018-04-02T13:15:51.019Z,96.10
2018-04-02T13:18:18.641Z,96.40
2018-04-02T13:20:47.779Z,96.70
2018-04-02T13:23:15.237Z,96.70
2018-04-02T13:25:42.710Z,96.20
2018-04-02T13:28:10.175Z,95.30
2018-04-02T13:30:37.679Z,95.80
2018-04-02T13:35:39.931Z,97.40
2018-04-02T13:38:07.456Z,97.70
2018-04-02T13:40:34.943Z,97.70
2018-04-02T13:43:03.328Z,97.50
2018-04-02T13:45:30.950Z,97.30
2018-04-02T13:47:58.486Z,97.60
2018-04-02T13:50:25.989Z,97.40
2018-04-02T13:52:53.468Z,96.90
2018-04-02T13:55:22.450Z,96.80
2018-04-02T13:57:51.468Z,96.20
2018-04-02T14:00:19.685Z,96.40
2018-04-02T14:02:47.190Z,96.30
2018-04-02T14:05:14.651Z,95.70
2018-04-02T14:07:42.859Z,96.00
2018-04-02T14:10:10.312Z,96.30
2018-04-02T14:12:37.815Z,95.30
2018-04-02T14:15:05.285Z,95.00
2018-04-02T14:17:33.581Z,95.40
2018-04-02T14:20:01.831Z,95.10
2018-04-02T14:22:29.305Z,95.10
2018-04-02T14:24:56.771Z,95.20
2018-04-02T14:27:25.035Z,95.20
2018-04-02T14:29:53.322Z,95.00
2018-04-02T14:32:21.585Z,94.80
2018-04-02T14:34:49.198Z,94.70
2018-04-02T14:37:16.715Z,95.30
2018-04-02T14:39:44.220Z,96.00
2018-04-02T14:42:11.702Z,95.70
2018-04-02T14:44:39.333Z,95.80
2018-04-02T14:47:07.630Z,94.10
2018-04-02T14:49:35.258Z,94.10
2018-04-02T14:52:02.801Z,95.40
2018-04-02T14:54:31.103Z,94.20
2018-04-02T14:56:58.581Z,94.20
2018-04-02T14:59:26.070Z,93.70
2018-04-02T15:01:54.348Z,93.80
2018-04-02T15:04:21.870Z,93.80
2018-04-02T15:06:49.333Z,93.90
2018-04-02T15:09:16.841Z,94.00
2018-04-02T15:11:45.222Z,94.20
2018-04-02T15:14:12.684Z,94.20
2018-04-02T15:16:40.306Z,94.40
2018-04-02T15:19:08.464Z,94.00
2018-04-02T15:21:35.936Z,93.60
2018-04-02T15:24:05.033Z,93.80
2018-04-02T15:26:33.292Z,93.70
2018-04-02T15:29:00.771Z,93.70
2018-04-02T15:31:29.182Z,93.30
2018-04-02T15:33:56.634Z,93.40
2018-04-02T15:36:24.112Z,93.70
2018-04-02T15:38:51.749Z,93.20
2018-04-02T15:41:20.076Z,94.20
2018-04-02T15:43:47.562Z,94.20
2018-04-02T15:46:15.831Z,94.70
2018-04-02T15:48:45.109Z,94.80
2018-04-02T15:51:12.583Z,94.80
2018-04-02T15:53:41.568Z,94.60
2018-04-02T15:56:09.099Z,94.60
2018-04-02T15:58:36.681Z,94.60
2018-04-02T16:01:04.377Z,94.10
2018-04-02T16:03:32.818Z,94.00
2018-04-02T16:06:01.136Z,94.30
2018-04-02T16:08:28.808Z,93.90
2018-04-02T16:10:57.542Z,94.30
2018-04-02T16:13:25.234Z,94.30
2018-04-02T16:15:52.782Z,94.30
2018-04-02T16:18:21.062Z,95.00
2018-04-02T16:20:48.728Z,95.20
2018-04-02T16:23:17.156Z,94.60
2018-04-02T16:25:44.675Z,94.90
2018-04-02T16:28:12.348Z,94.80
2018-04-02T16:30:40.712Z,95.20
2018-04-02T16:33:08.289Z,95.20
2018-04-02T16:35:36.408Z,95.20
2018-04-02T16:38:04.473Z,94.80
2018-04-02T16:40:31.946Z,95.10
2018-04-02T16:42:59.444Z,95.20
2018-04-02T16:45:27.674Z,95.30
2018-04-02T16:47:55.261Z,95.30
2018-04-02T16:50:23.482Z,95.50
2018-04-02T16:52:51.812Z,95.50
2018-04-02T16:55:20.077Z,96.70
2018-04-02T16:57:47.547Z,96.50
2018-04-02T17:00:15.740Z,97.10
2018-04-02T17:02:43.245Z,97.00
2018-04-02T17:05:10.845Z,96.70
2018-04-02T17:07:39.113Z,97.00
2018-04-02T17:10:07.414Z,96.70
2018-04-02T17:12:35.033Z,96.70
2018-04-02T17:15:02.506Z,96.60
2018-04-02T17:17:30.780Z,97.20
2018-04-02T17:19:58.339Z,96.90
2018-04-02T17:22:25.944Z,96.80
2018-04-02T17:24:53.459Z,96.70
2018-04-02T17:27:22.908Z,97.00
2018-04-02T17:29:51.065Z,97.00
2018-04-02T17:32:19.225Z,97.50
2018-04-02T17:34:48.138Z,97.10
2018-04-02T17:37:15.991Z,97.10
2018-04-02T17:39:44.169Z,97.40
2018-04-02T17:42:12.014Z,97.60
2018-04-02T17:44:40.700Z,97.40
2018-04-02T17:47:08.665Z,97.40
2018-04-02T17:49:37.019Z,97.50
2018-04-02T17:52:04.871Z,97.50
2018-04-02T17:54:32.410Z,97.90
2018-04-02T17:57:00.463Z,98.70
2018-04-02T17:59:28.550Z,99.90
2018-04-02T18:01:56.438Z,99.70
2018-04-02T18:04:24.216Z,99.40
2018-04-02T18:06:51.772Z,99.20
2018-04-02T18:09:19.636Z,99.70
2018-04-02T18:11:47.219Z,99.90
2018-04-02T18:14:14.711Z,99.90
2018-04-02T18:16:42.251Z,99.90
2018-04-02T18:19:10.514Z,99.90
2018-04-02T18:21:38.165Z,99.90
2018-04-02T18:24:06.422Z,99.90
2018-04-02T18:26:33.918Z,99.90
2018-04-02T18:29:02.340Z,99.90
2018-04-02T18:31:29.874Z,99.90
2018-04-02T18:33:57.452Z,99.90
2018-04-02T18:36:24.954Z,99.90
2018-04-02T18:38:52.446Z,99.90
2018-04-02T18:41:19.971Z,99.90
2018-04-02T18:43:49.130Z,99.90
2018-04-02T18:46:16.623Z,99.90
2018-04-02T18:48:44.881Z,99.90
2018-04-02T18:51:12.439Z,99.90
2018-04-02T18:53:39.982Z,99.90
2018-04-02T18:56:07.514Z,99.90
2018-04-02T18:58:35.054Z,99.90
2018-04-02T19:01:03.325Z,99.90
2018-04-02T19:03:32.347Z,99.90
2018-04-02T19:06:00.584Z,99.90
2018-04-02T19:08:28.222Z,99.90
2018-04-02T19:10:55.909Z,99.90
2018-04-02T19:13:23.494Z,99.90
2018-04-02T19:15:51.713Z,99.90
2018-04-02T19:18:19.288Z,99.90
2018-04-02T19:20:46.804Z,99.90
2018-04-02T19:23:14.314Z,99.90
2018-04-02T19:25:41.805Z,99.90
2018-04-02T19:28:09.360Z,99.90
2018-04-02T19:30:36.878Z,99.90
2018-04-02T19:33:04.352Z,99.90
2018-04-02T19:35:32.698Z,99.90
2018-04-02T19:38:00.234Z,99.90
2018-04-02T19:40:27.899Z,99.90
2018-04-02T19:42:55.534Z,99.90
2018-04-02T19:45:23.074Z,99.90
2018-04-02T19:47:51.698Z,99.90
2018-04-02T19:50:19.267Z,99.90
2018-04-02T19:52:46.810Z,99.90
2018-04-02T19:55:14.329Z,99.90
2018-04-02T19:57:42.751Z,99.90
2018-04-02T20:00:10.242Z,99.90
2018-04-02T20:02:37.738Z,99.90
2018-04-02T20:05:06.004Z,99.90
2018-04-02T20:07:34.257Z,99.90
2018-04-02T20:10:01.825Z,99.90
2018-04-02T20:12:30.676Z,99.90
2018-04-02T20:14:58.257Z,99.90
2018-04-02T20:17:25.762Z,99.90
2018-04-02T20:19:53.318Z,99.90
2018-04-02T20:22:21.604Z,99.90
2018-04-02T20:24:49.127Z,99.90
2018-04-02T20:27:16.612Z,99.90
2018-04-02T20:29:44.130Z,99.90
2018-04-02T20:32:11.597Z,99.90
2018-04-02T20:34:39.185Z,99.90
2018-04-02T20:37:07.534Z,99.90
2018-04-02T20:39:35.185Z,99.90
2018-04-02T20:42:02.711Z,99.90
2018-04-02T20:44:30.341Z,99.90
2018-04-02T20:46:58.585Z,99.90
2018-04-02T20:49:26.053Z,99.90
2018-04-02T20:51:53.553Z,99.90
2018-04-02T20:54:21.191Z,99.90
2018-04-02T20:56:49.452Z,99.90
2018-04-02T20:59:16.970Z,99.90
2018-04-02T21:01:44.494Z,99.90
2018-04-02T21:04:12.718Z,99.90
2018-04-02T21:06:40.269Z,99.90
2018-04-02T21:09:07.783Z,99.90
2018-04-02T21:11:35.335Z,99.90
2018-04-02T21:14:03.600Z,99.90
2018-04-02T21:16:31.874Z,99.90
2018-04-02T21:19:00.126Z,99.90
2018-04-02T21:21:27.782Z,99.90
2018-04-02T21:23:55.418Z,99.90
2018-04-02T21:26:23.827Z,99.90
2018-04-02T21:28:52.926Z,99.90
2018-04-02T21:31:21.389Z,99.90
2018-04-02T21:33:48.991Z,99.90
2018-04-02T21:36:17.238Z,99.90
2018-04-02T21:38:44.718Z,99.90
2018-04-02T21:41:12.965Z,99.90
2018-04-02T21:43:40.448Z,99.90
2018-04-02T21:46:07.924Z,99.90
2018-04-02T21:48:35.510Z,99.90
2018-04-02T21:51:03.485Z,99.90
2018-04-02T21:53:30.982Z,99.90
2018-04-02T21:55:58.616Z,99.90
2018-04-02T21:58:26.303Z,99.90
2018-04-02T22:00:53.838Z,99.90
2018-04-02T22:03:21.338Z,99.90
2018-04-02T22:05:48.890Z,99.90
2018-04-02T22:08:17.163Z,99.90
2018-04-02T22:10:44.649Z,99.90
2018-04-02T22:13:12.242Z,99.90
2018-04-02T22:15:39.741Z,99.90
2018-04-02T22:18:08.017Z,99.90
2018-04-02T22:20:36.266Z,99.90
2018-04-02T22:23:03.785Z,99.90
2018-04-02T22:25:31.273Z,99.90
2018-04-02T22:27:58.739Z,99.90
2018-04-02T22:30:26.297Z,99.90
2018-04-02T22:32:53.969Z,99.90
2018-04-02T22:35:21.505Z,99.90
2018-04-02T22:37:49.175Z,99.90
2018-04-02T22:40:16.661Z,99.90
2018-04-02T22:42:45.996Z,99.90
2018-04-02T22:45:13.468Z,99.90
2018-04-02T22:47:40.966Z,99.90
2018-04-02T22:50:08.437Z,99.90
2018-04-02T22:52:36.661Z,99.90
2018-04-02T22:55:04.230Z,99.90
2018-04-02T22:57:31.693Z,99.90
2018-04-02T22:59:59.169Z,99.90
2018-04-02T23:02:26.637Z,99.90
2018-04-02T23:04:54.125Z,99.90
2018-04-02T23:07:21.596Z,99.90
2018-04-02T23:09:49.061Z,99.90
2018-04-02T23:12:16.520Z,99.90
2018-04-02T23:14:44.125Z,99.90
2018-04-02T23:17:12.401Z,99.90
2018-04-02T23:19:40.633Z,99.90
2018-04-02T23:22:08.171Z,99.90
2018-04-02T23:24:35.648Z,99.90
2018-04-02T23:27:03.102Z,99.90
2018-04-02T23:29:30.587Z,99.90
2018-04-02T23:31:58.264Z,99.90
2018-04-02T23:34:25.725Z,99.90
2018-04-02T23:36:53.960Z,99.90
2018-04-02T23:39:22.086Z,99.90
2018-04-02T23:41:50.325Z,99.90
2018-04-02T23:44:17.794Z,99.90
2018-04-02T23:46:45.355Z,99.90
2018-04-02T23:49:12.821Z,99.90
2018-04-02T23:51:41.073Z,99.90
2018-04-02T23:54:08.545Z,99.90
2018-04-02T23:56:36.025Z,99.90
2018-04-02T23:59:04.260Z,99.90
